createdAt,value
2022-08-11T00:00:13.826Z,18.79
2022-08-11T00:03:07.600Z,18.76
2022-08-11T00:05:50.400Z,18.73
2022-08-11T00:08:26.815Z,18.70
2022-08-11T00:11:04.480Z,18.69
2022-08-11T00:13:45.002Z,18.67
2022-08-11T00:16:16.581Z,18.66
2022-08-11T00:18:49.471Z,18.67
2022-08-11T00:21:18.478Z,18.66
2022-08-11T00:23:57.253Z,18.64
2022-08-11T00:26:26.204Z,18.59
2022-08-11T00:28:54.013Z,18.55
2022-08-11T00:31:30.984Z,18.51
2022-08-11T00:34:00.572Z,18.48
2022-08-11T00:36:38.767Z,18.48
2022-08-11T00:39:10.151Z,18.49
2022-08-11T00:42:23.056Z,18.48
2022-08-11T00:45:01.656Z,18.46
2022-08-11T00:47:36.388Z,18.42
2022-08-11T00:50:09.930Z,18.43
2022-08-11T00:52:59.238Z,18.44
2022-08-11T00:55:55.742Z,18.47
2022-08-11T00:59:34.438Z,18.44
2022-08-11T01:02:13.421Z,18.36
2022-08-11T01:05:04.496Z,18.35
2022-08-11T01:08:00.613Z,18.35
2022-08-11T01:10:40.841Z,18.36
2022-08-11T01:13:38.395Z,18.34
2022-08-11T01:16:07.961Z,18.31
2022-08-11T01:19:22.031Z,18.31
2022-08-11T01:22:19.269Z,18.32
2022-08-11T01:25:04.287Z,18.30
2022-08-11T01:28:14.548Z,18.26
2022-08-11T01:30:44.493Z,18.19
2022-08-11T01:33:46.675Z,18.12
2022-08-11T01:36:47.831Z,18.00
2022-08-11T01:39:45.383Z,17.90
2022-08-11T01:43:08.950Z,17.85
2022-08-11T01:45:45.976Z,17.78
2022-08-11T01:48:12.894Z,17.72
2022-08-11T01:50:42.824Z,17.66
2022-08-11T01:53:35.254Z,17.60
2022-08-11T01:56:14.063Z,17.53
2022-08-11T01:58:48.045Z,17.50
2022-08-11T02:01:37.648Z,17.49
2022-08-11T02:04:29.486Z,17.47
2022-08-11T02:07:16.718Z,17.41
2022-08-11T02:09:49.880Z,17.36
2022-08-11T02:12:51.157Z,17.30
2022-08-11T02:15:37.961Z,17.25
2022-08-11T02:18:10.912Z,17.23
2022-08-11T02:21:09.934Z,17.24
2022-08-11T02:24:07.016Z,17.22
2022-08-11T02:26:41.812Z,17.17
2022-08-11T02:29:32.746Z,17.04
2022-08-11T02:32:32.657Z,16.85
2022-08-11T02:35:42.364Z,16.65
2022-08-11T02:38:30.538Z,16.46
2022-08-11T02:41:31.567Z,16.28
2022-08-11T02:44:04.233Z,16.10
2022-08-11T02:46:58.390Z,15.96
2022-08-11T02:50:02.583Z,15.83
2022-08-11T02:52:45.791Z,15.77
2022-08-11T02:55:56.614Z,15.73
2022-08-11T02:58:13.924Z,15.67
2022-08-11T03:01:12.549Z,15.60
2022-08-11T03:04:04.494Z,15.54
2022-08-11T03:07:28.537Z,15.49
2022-08-11T03:10:13.462Z,15.42
2022-08-11T03:13:19.468Z,15.41
2022-08-11T03:16:37.624Z,15.42
2022-08-11T03:19:42.127Z,15.47
2022-08-11T03:22:30.797Z,15.51
2022-08-11T03:25:13.055Z,15.57
2022-08-11T03:27:57.626Z,15.64
2022-08-11T03:30:52.402Z,15.67
2022-08-11T03:33:41.062Z,15.66
2022-08-11T03:36:29.559Z,15.63
2022-08-11T03:39:03.724Z,15.61
2022-08-11T03:42:10.270Z,15.58
2022-08-11T03:45:00.388Z,15.56
2022-08-11T03:47:55.565Z,15.52
2022-08-11T03:50:58.676Z,15.46
2022-08-11T03:54:20.006Z,15.49
2022-08-11T03:57:42.236Z,15.51
2022-08-11T04:00:57.759Z,15.48
2022-08-11T04:03:56.062Z,15.40
2022-08-11T04:07:08.322Z,15.33
2022-08-11T04:10:15.613Z,15.26
2022-08-11T04:13:17.447Z,15.22
2022-08-11T04:16:24.123Z,15.17
2022-08-11T04:19:21.360Z,15.17
2022-08-11T04:22:03.514Z,15.20
2022-08-11T04:25:09.041Z,15.21
2022-08-11T04:28:06.225Z,15.24
2022-08-11T04:30:51.806Z,15.30
2022-08-11T04:33:41.001Z,15.37
2022-08-11T04:36:59.720Z,15.42
2022-08-11T04:39:43.047Z,15.55
2022-08-11T04:43:12.659Z,15.68
2022-08-11T04:46:07.812Z,15.84
2022-08-11T04:49:33.991Z,15.96
2022-08-11T04:52:51.812Z,16.11
2022-08-11T04:56:11.702Z,16.24
2022-08-11T04:59:10.378Z,16.38
2022-08-11T05:02:17.666Z,16.49
2022-08-11T05:05:31.380Z,16.63
2022-08-11T05:08:24.314Z,16.79
2022-08-11T05:11:15.807Z,16.91
2022-08-11T05:14:37.137Z,17.04
2022-08-11T05:17:29.265Z,17.25
2022-08-11T05:20:15.345Z,17.43
2022-08-11T05:23:09.840Z,17.55
2022-08-11T05:26:43.242Z,17.70
2022-08-11T05:29:24.186Z,17.90
2022-08-11T05:32:20.050Z,18.10
2022-08-11T05:34:53.470Z,18.43
2022-08-11T05:37:32.713Z,19.00
2022-08-11T05:40:24.309Z,19.71
2022-08-11T05:43:16.186Z,20.28
2022-08-11T05:46:25.583Z,20.47
2022-08-11T05:49:13.027Z,20.56
2022-08-11T05:52:05.367Z,20.55
2022-08-11T05:55:06.436Z,21.06
2022-08-11T05:57:51.073Z,21.68
2022-08-11T06:00:19.840Z,22.30
2022-08-11T06:03:21.207Z,22.71
2022-08-11T06:06:01.304Z,23.24
2022-08-11T06:08:35.749Z,23.29
2022-08-11T06:11:44.404Z,23.29
2022-08-11T06:14:15.857Z,23.17
2022-08-11T06:16:55.451Z,23.20
2022-08-11T06:19:40.806Z,23.39
2022-08-11T06:22:12.759Z,23.78
2022-08-11T06:24:52.943Z,24.09
2022-08-11T06:27:24.248Z,24.41
2022-08-11T06:29:55.937Z,24.58
2022-08-11T06:32:35.878Z,24.82
2022-08-11T06:35:24.919Z,24.89
2022-08-11T06:38:24.677Z,24.66
2022-08-11T06:41:31.009Z,24.66
2022-08-11T06:44:48.567Z,24.87
2022-08-11T06:47:57.185Z,25.17
2022-08-11T06:51:01.683Z,24.94
2022-08-11T06:53:56.353Z,24.34
2022-08-11T06:57:34.185Z,23.88
2022-08-11T07:00:16.609Z,23.90
2022-08-11T07:03:03.051Z,24.32
2022-08-11T07:06:16.177Z,24.53
2022-08-11T07:09:36.390Z,24.82
2022-08-11T07:13:06.988Z,24.78
2022-08-11T07:16:13.275Z,24.59
2022-08-11T07:18:58.175Z,24.91
2022-08-11T07:22:01.599Z,25.22
2022-08-11T07:25:16.154Z,25.34
2022-08-11T07:28:16.529Z,25.20
2022-08-11T07:30:52.070Z,24.93
2022-08-11T07:34:05.344Z,24.80
2022-08-11T07:36:44.427Z,24.74
2022-08-11T07:39:32.749Z,24.82
2022-08-11T07:42:08.775Z,24.84
2022-08-11T07:45:09.334Z,24.60
2022-08-11T07:47:58.503Z,24.51
2022-08-11T07:50:50.829Z,24.89
2022-08-11T07:53:58.722Z,25.16
2022-08-11T07:57:51.548Z,25.47
2022-08-11T08:00:47.129Z,25.30
2022-08-11T08:03:54.150Z,25.01
2022-08-11T08:06:42.887Z,25.30
2022-08-11T08:09:31.994Z,25.34
2022-08-11T08:12:25.889Z,25.44
2022-08-11T08:15:15.797Z,25.59
2022-08-11T08:18:10.098Z,25.55
2022-08-11T08:20:51.921Z,25.46
2022-08-11T08:23:36.705Z,25.29
2022-08-11T08:26:28.759Z,24.99
2022-08-11T08:29:20.397Z,24.85
2022-08-11T08:31:49.951Z,24.93
2022-08-11T08:34:21.101Z,25.15
2022-08-11T08:36:50.483Z,25.35
2022-08-11T08:39:22.094Z,25.51
2022-08-11T08:41:55.765Z,25.61
2022-08-11T08:44:39.231Z,25.79
2022-08-11T08:47:37.498Z,25.73
2022-08-11T08:50:08.226Z,25.65
2022-08-11T08:52:43.563Z,25.89
2022-08-11T08:55:19.667Z,26.11
2022-08-11T08:57:53.511Z,26.22
2022-08-11T09:00:37.287Z,26.01
2022-08-11T09:03:36.123Z,25.94
2022-08-11T09:06:00.407Z,25.70
2022-08-11T09:08:37.408Z,25.87
2022-08-11T09:11:30.047Z,26.02
2022-08-11T09:14:06.462Z,26.33
2022-08-11T09:16:57.499Z,26.60
2022-08-11T09:19:39.650Z,26.59
2022-08-11T09:26:35.159Z,25.81
2022-08-11T09:29:39.294Z,26.29
2022-08-11T09:32:27.764Z,26.88
2022-08-11T09:35:09.670Z,26.88
2022-08-11T09:42:01.705Z,26.66
2022-08-11T09:44:51.720Z,26.50
2022-08-11T09:47:21.623Z,26.38
2022-08-11T09:50:06.175Z,26.35
2022-08-11T09:53:09.957Z,26.88
2022-08-11T09:56:38.650Z,27.22
2022-08-11T09:59:17.894Z,27.12
2022-08-11T10:02:15.851Z,26.67
2022-08-11T10:05:09.319Z,26.66
2022-08-11T10:08:41.360Z,26.76
2022-08-11T10:11:41.490Z,26.76
2022-08-11T10:14:41.236Z,26.94
2022-08-11T10:17:23.343Z,27.31
2022-08-11T10:20:04.852Z,26.88
2022-08-11T10:23:01.026Z,26.65
2022-08-11T10:25:50.773Z,26.98
2022-08-11T10:28:33.855Z,27.40
2022-08-11T10:31:56.942Z,27.55
2022-08-11T10:34:35.314Z,28.18
2022-08-11T10:42:06.597Z,28.63
2022-08-11T10:44:41.210Z,28.20
2022-08-11T10:47:30.847Z,28.00
2022-08-11T10:50:17.576Z,28.00
2022-08-11T10:53:06.972Z,28.14
2022-08-11T10:55:54.967Z,28.24
2022-08-11T10:58:45.614Z,28.42
2022-08-11T11:01:19.544Z,28.24
2022-08-11T11:03:58.858Z,28.23
2022-08-11T11:06:43.543Z,28.04
2022-08-11T11:09:24.902Z,27.29
2022-08-11T11:12:36.459Z,26.47
2022-08-11T11:15:24.556Z,26.04
2022-08-11T11:18:04.168Z,25.82
2022-08-11T11:20:56.269Z,25.81
2022-08-11T11:23:39.231Z,26.32
2022-08-11T11:26:27.316Z,26.44
2022-08-11T11:29:46.657Z,26.75
2022-08-11T11:32:35.819Z,26.78
2022-08-11T11:35:39.324Z,27.22
2022-08-11T11:38:14.144Z,27.77
2022-08-11T11:40:42.355Z,27.95
2022-08-11T11:43:10.039Z,27.82
2022-08-11T11:45:41.827Z,27.93
2022-08-11T11:48:08.911Z,28.13
2022-08-11T11:50:37.931Z,28.08
2022-08-11T11:53:57.486Z,27.46
2022-08-11T12:00:55.189Z,26.72
2022-08-11T12:03:36.469Z,26.68
2022-08-11T12:06:13.929Z,27.30
2022-08-11T12:08:58.741Z,27.87
2022-08-11T12:11:47.161Z,28.33
2022-08-11T12:14:30.014Z,28.77
2022-08-11T12:16:58.554Z,28.80
2022-08-11T12:19:37.786Z,28.52
2022-08-11T12:22:35.325Z,28.81
2022-08-11T12:25:24.168Z,29.31
2022-08-11T12:27:55.724Z,29.55
2022-08-11T12:30:30.538Z,29.34
2022-08-11T12:33:03.455Z,28.42
2022-08-11T12:35:34.841Z,28.09
2022-08-11T12:38:09.507Z,28.47
2022-08-11T12:44:14.650Z,28.87
2022-08-11T12:46:50.279Z,29.29
2022-08-11T12:49:45.490Z,29.52
2022-08-11T12:52:36.115Z,29.44
2022-08-11T12:56:03.803Z,29.21
2022-08-11T12:58:54.006Z,28.98
2022-08-11T13:01:49.351Z,29.07
2022-08-11T13:04:35.450Z,28.86
2022-08-11T13:07:25.657Z,28.41
2022-08-11T13:10:01.771Z,28.19
2022-08-11T13:12:47.665Z,28.14
2022-08-11T13:15:28.323Z,28.28
2022-08-11T13:18:00.801Z,28.70
2022-08-11T13:20:31.258Z,28.87
2022-08-11T13:23:02.903Z,28.80
2022-08-11T13:25:32.909Z,28.73
2022-08-11T13:28:02.673Z,28.81
2022-08-11T13:30:56.871Z,28.72
2022-08-11T13:33:30.367Z,28.30
2022-08-11T13:36:01.903Z,28.41
2022-08-11T13:38:36.453Z,28.34
2022-08-11T13:41:28.008Z,28.54
2022-08-11T13:44:04.090Z,28.62
2022-08-11T13:46:52.789Z,28.49
2022-08-11T13:49:30.965Z,28.44
2022-08-11T13:52:02.507Z,28.57
2022-08-11T13:54:56.220Z,28.37
2022-08-11T13:58:18.473Z,27.75
2022-08-11T14:00:38.200Z,27.49
2022-08-11T14:03:12.493Z,27.07
2022-08-11T14:05:52.782Z,26.74
2022-08-11T14:08:37.095Z,26.79
2022-08-11T14:12:22.194Z,27.07
2022-08-11T14:14:43.207Z,27.30
2022-08-11T14:17:35.927Z,27.35
2022-08-11T14:20:38.323Z,27.58
2022-08-11T14:22:58.395Z,27.71
2022-08-11T14:25:59.980Z,27.70
2022-08-11T14:28:32.942Z,27.81
2022-08-11T14:31:08.065Z,27.67
2022-08-11T14:33:59.915Z,27.38
2022-08-11T14:36:35.698Z,27.24
2022-08-11T14:39:40.644Z,27.27
2022-08-11T14:42:48.292Z,27.39
2022-08-11T14:45:57.446Z,27.48
2022-08-11T14:48:29.650Z,27.36
2022-08-11T14:50:58.003Z,27.46
2022-08-11T14:53:25.665Z,27.59
2022-08-11T14:56:14.953Z,27.56
2022-08-11T14:58:50.610Z,27.40
2022-08-11T15:01:37.670Z,27.22
2022-08-11T15:04:34.954Z,27.16
2022-08-11T15:07:40.896Z,27.04
2022-08-11T15:10:13.867Z,26.98
2022-08-11T15:12:46.609Z,26.93
2022-08-11T15:15:33.690Z,26.92
2022-08-11T15:18:14.741Z,26.81
2022-08-11T15:21:08.869Z,26.72
2022-08-11T15:23:57.809Z,26.63
2022-08-11T15:26:55.944Z,26.65
2022-08-11T15:29:46.225Z,26.71
2022-08-11T15:32:21.946Z,26.60
2022-08-11T15:35:19.592Z,26.54
2022-08-11T15:38:00.572Z,26.44
2022-08-11T15:40:57.392Z,26.43
2022-08-11T15:44:04.510Z,26.33
2022-08-11T15:46:46.912Z,26.22
2022-08-11T15:50:11.245Z,26.13
2022-08-11T15:52:46.862Z,26.18
2022-08-11T15:55:16.554Z,26.16
2022-08-11T15:58:06.545Z,26.22
2022-08-11T16:04:26.772Z,26.43
2022-08-11T16:07:26.658Z,26.47
2022-08-11T16:10:27.104Z,26.44
2022-08-11T17:15:48.222Z,25.76
2022-08-11T17:18:40.025Z,25.70
2022-08-11T17:21:33.204Z,25.61
2022-08-11T17:24:09.903Z,25.56
2022-08-11T17:26:56.471Z,25.53
2022-08-11T17:29:28.302Z,25.48
2022-08-11T17:32:15.143Z,25.49
2022-08-11T17:35:05.197Z,25.47
2022-08-11T17:37:37.841Z,25.42
2022-08-11T17:40:12.328Z,25.40
2022-08-11T17:43:03.971Z,25.36
2022-08-11T17:46:00.120Z,25.32
2022-08-11T17:48:30.522Z,25.26
2022-08-11T17:51:11.323Z,25.22
2022-08-11T17:54:23.828Z,25.16
2022-08-11T17:57:09.063Z,25.07
2022-08-11T17:59:52.637Z,24.96
2022-08-11T18:02:53.156Z,24.90
2022-08-11T18:05:25.566Z,24.87
2022-08-11T18:08:16.629Z,24.83
2022-08-11T18:11:17.459Z,24.73
2022-08-11T18:14:22.047Z,24.62
2022-08-11T18:17:08.147Z,24.53
2022-08-11T18:19:55.369Z,24.46
2022-08-11T18:22:45.266Z,24.35
2022-08-11T18:25:45.683Z,24.22
2022-08-11T18:28:33.896Z,24.13
2022-08-11T18:31:23.200Z,24.04
2022-08-11T18:34:16.669Z,23.91
2022-08-11T18:38:02.000Z,23.77
2022-08-11T18:40:51.677Z,23.62
2022-08-11T18:43:51.187Z,23.58
2022-08-11T18:46:41.543Z,23.59
2022-08-11T18:50:03.913Z,23.54
2022-08-11T18:52:46.978Z,23.46
2022-08-11T18:55:56.037Z,23.40
2022-08-11T18:58:56.152Z,23.41
2022-08-11T19:01:45.989Z,23.34
2022-08-11T19:04:38.257Z,23.27
2022-08-11T19:07:32.374Z,23.24
2022-08-11T19:10:23.086Z,23.22
2022-08-11T19:13:10.351Z,23.17
2022-08-11T19:15:59.056Z,23.13
2022-08-11T19:18:45.101Z,23.10
2022-08-11T19:21:40.111Z,23.07
2022-08-11T19:24:29.053Z,23.01
2022-08-11T19:27:19.796Z,22.96
2022-08-11T19:30:13.133Z,22.90
2022-08-11T19:33:03.836Z,22.88
2022-08-11T19:35:53.751Z,22.86
2022-08-11T19:38:40.160Z,22.81
2022-08-11T19:41:56.937Z,22.73
2022-08-11T19:44:39.855Z,22.72
2022-08-11T19:47:27.098Z,22.70
2022-08-11T19:50:21.614Z,22.66
2022-08-11T19:53:17.396Z,22.59
2022-08-11T19:56:08.304Z,22.53
2022-08-11T19:59:15.718Z,22.48
2022-08-11T20:02:13.829Z,22.45
2022-08-11T20:05:00.633Z,22.40
2022-08-11T20:07:53.867Z,22.33
2022-08-11T20:10:42.544Z,22.31
2022-08-11T20:13:30.916Z,22.29
2022-08-11T20:16:17.991Z,22.24
2022-08-11T20:19:05.369Z,22.22
2022-08-11T20:21:54.949Z,22.26
2022-08-11T20:24:41.089Z,22.32
2022-08-11T20:27:31.037Z,22.37
2022-08-11T20:30:18.667Z,22.35
2022-08-11T20:33:06.202Z,22.25
2022-08-11T20:35:55.125Z,22.12
2022-08-11T20:38:51.809Z,22.02
2022-08-11T20:41:58.686Z,21.96
2022-08-11T20:44:50.583Z,21.97
2022-08-11T20:47:56.483Z,21.99
2022-08-11T20:50:47.558Z,22.06
2022-08-11T20:53:40.504Z,22.11
2022-08-11T20:56:28.578Z,22.11
2022-08-11T20:59:18.895Z,22.04
2022-08-11T21:02:09.915Z,21.96
2022-08-11T21:05:00.095Z,21.92
2022-08-11T21:07:57.201Z,21.85
2022-08-11T21:10:52.341Z,21.82
2022-08-11T21:13:46.536Z,21.84
2022-08-11T21:16:40.092Z,21.86
2022-08-11T21:20:00.166Z,21.86
2022-08-11T21:22:59.110Z,21.79
2022-08-11T21:26:02.133Z,21.64
2022-08-11T21:28:49.814Z,21.48
2022-08-11T21:31:38.581Z,21.45
2022-08-11T21:34:26.291Z,21.43
2022-08-11T21:37:12.358Z,21.40
2022-08-11T21:40:00.408Z,21.27
2022-08-11T21:42:50.605Z,21.12
2022-08-11T21:45:46.055Z,20.97
2022-08-11T21:48:32.240Z,20.82
2022-08-11T21:51:17.724Z,20.73
2022-08-11T21:54:04.257Z,20.72
2022-08-11T21:56:54.947Z,20.68
2022-08-11T21:59:50.009Z,20.64
2022-08-11T22:02:36.099Z,20.55
2022-08-11T22:05:35.082Z,20.43
2022-08-11T22:08:21.403Z,20.22
2022-08-11T22:11:06.982Z,20.07
2022-08-11T22:14:07.582Z,19.93
2022-08-11T22:16:54.691Z,19.81
2022-08-11T22:19:41.652Z,19.74
2022-08-11T22:22:31.107Z,19.71
2022-08-11T22:25:18.792Z,19.64
2022-08-11T22:28:06.510Z,19.54
2022-08-11T22:30:52.062Z,19.48
2022-08-11T22:33:41.414Z,19.42
2022-08-11T22:36:46.088Z,19.34
2022-08-11T22:39:35.269Z,19.30
2022-08-11T22:42:33.019Z,19.26
2022-08-11T22:45:20.735Z,19.18
2022-08-11T22:48:08.774Z,19.09
2022-08-11T22:51:00.700Z,19.01
2022-08-11T22:53:58.202Z,19.00
2022-08-11T22:56:50.931Z,18.99
2022-08-11T22:59:37.540Z,18.95
2022-08-11T23:02:25.084Z,18.90
2022-08-11T23:05:11.186Z,18.85
2022-08-11T23:07:57.733Z,18.80
2022-08-11T23:10:45.348Z,18.77
2022-08-11T23:13:31.947Z,18.78
2022-08-11T23:16:17.565Z,18.78
2022-08-11T23:19:03.963Z,18.77
2022-08-11T23:21:52.207Z,18.73
2022-08-11T23:24:41.362Z,18.69
2022-08-11T23:27:32.306Z,18.61
2022-08-11T23:30:21.882Z,18.57
2022-08-11T23:33:11.980Z,18.57
2022-08-11T23:36:09.835Z,18.56
2022-08-11T23:38:55.919Z,18.54
2022-08-11T23:41:41.991Z,18.44
2022-08-11T23:44:28.180Z,18.30
2022-08-11T23:47:19.255Z,18.35
2022-08-11T23:50:06.442Z,18.40
2022-08-11T23:52:53.761Z,18.31
2022-08-11T23:55:39.827Z,18.21
2022-08-11T23:58:25.666Z,18.08
